Time;durP1;ratioP1;P1;durP2;ratioP2;P2;SDS_P1;SDS_P2;PMS_P1;PMS_P2;Temp;Humidity;BMP_temperature;BMP_pressure;BME280_temperature;BME280_humidity;BME280_pressure;Samples;Min_cycle;Max_cycle;Signal;HPM_P1;HPM_P2
2021/12/21 00:01:51;;;;;;;25.67;11.07;;;;;;;-1.24;83.16;102730.50;4974692;28;20034;-88
2021/12/21 00:04:17;;;;;;;24.67;11.60;;;;;;;-1.23;82.92;102729.69;4972910;28;20034;-88
2021/12/21 00:06:43;;;;;;;27.47;11.43;;;;;;;-1.23;82.79;102732.25;4975868;28;20027;-88
2021/12/21 00:09:09;;;;;;;27.07;10.73;;;;;;;-1.25;81.68;102726.19;4976610;28;20031;-87
2021/12/21 00:11:35;;;;;;;26.67;11.30;;;;;;;-1.29;82.03;102722.59;4975584;28;20073;-88
2021/12/21 00:19:51;;;;;;;25.10;9.90;;;;;;;-1.31;83.02;102728.41;4974391;28;20045;-88
2021/12/21 00:22:46;;;;;;;23.67;9.93;;;;;;;-1.29;81.30;102722.59;4973715;28;20461;-88
2021/12/21 00:25:02;;;;;;;21.27;9.60;;;;;;;-1.31;81.53;102718.19;4974686;28;20094;-88
2021/12/21 00:27:27;;;;;;;22.47;9.73;;;;;;;-1.27;81.71;102717.56;4968113;28;20035;-88
2021/12/21 00:29:53;;;;;;;20.27;10.00;;;;;;;-1.27;81.55;102715.00;4972244;28;20061;-88
2021/12/21 00:32:18;;;;;;;24.10;10.03;;;;;;;-1.28;82.16;102713.25;4972645;28;20114;-88
2021/12/21 00:34:43;;;;;;;21.93;10.20;;;;;;;-1.28;82.19;102718.34;4976253;28;20046;-87
2021/12/21 00:37:09;;;;;;;23.63;10.70;;;;;;;-1.30;82.13;102712.28;4977863;28;20537;-88
2021/12/21 00:39:35;;;;;;;26.53;11.37;;;;;;;-1.30;82.39;102712.28;4978779;28;20081;-88
2021/12/21 00:42:01;;;;;;;27.97;11.13;;;;;;;-1.34;82.18;102690.81;4960167;28;20531;-87
2021/12/21 00:44:27;;;;;;;27.23;10.90;;;;;;;-1.33;82.75;102704.44;4960424;28;20023;-88
2021/12/21 00:46:52;;;;;;;23.47;10.43;;;;;;;-1.34;82.53;102697.59;4982947;28;20176;-88
2021/12/21 00:49:17;;;;;;;26.23;10.67;;;;;;;-1.39;81.22;102705.00;4977670;28;20463;-88
2021/12/21 00:51:46;;;;;;;17.87;8.97;;;;;;;-1.43;81.16;102698.88;4960024;28;20182;-88
2021/12/21 00:54:13;;;;;;;20.37;9.40;;;;;;;-1.38;81.08;102707.66;4976317;28;20031;-87
2021/12/21 00:56:38;;;;;;;22.23;10.50;;;;;;;-1.35;81.29;102700.94;4977900;28;20031;-88
2021/12/21 00:59:05;;;;;;;25.83;10.40;;;;;;;-1.37;81.45;102698.31;4977386;28;20037;-88
2021/12/21 01:01:32;;;;;;;23.67;10.73;;;;;;;-1.41;81.31;102704.03;4979599;28;20030;-87
2021/12/21 01:03:59;;;;;;;23.43;10.07;;;;;;;-1.40;80.97;102704.16;4976370;28;20045;-88
2021/12/21 01:11:28;;;;;;;23.90;10.57;;;;;;;-1.49;81.70;102708.72;4986042;28;20042;-88
2021/12/21 01:16:39;;;;;;;23.23;10.63;;;;;;;-1.55;81.51;102698.22;4981803;28;20126;-88
2021/12/21 01:19:10;;;;;;;26.10;10.33;;;;;;;-1.60;81.34;102702.19;4978611;28;20101;-88
2021/12/21 01:21:47;;;;;;;23.88;9.18;;;;;;;-1.59;80.97;102703.94;4977467;28;20030;-88
2021/12/21 01:27:01;;;;;;;21.47;9.97;;;;;;;-1.68;81.20;102701.75;4976345;28;20035;-88
2021/12/21 01:34:53;;;;;;;24.67;10.07;;;;;;;-1.69;81.20;102700.84;4977144;28;20045;-88
2021/12/21 01:37:41;;;;;;;21.27;9.30;;;;;;;-1.71;81.05;102699.91;4974381;28;20037;-88
2021/12/21 01:40:31;;;;;;;21.43;9.83;;;;;;;-1.73;80.86;102698.97;4958014;28;20475;-88
2021/12/21 01:43:16;;;;;;;24.20;9.70;;;;;;;-1.73;80.35;102698.06;4958516;28;20022;-88
2021/12/21 01:51:11;;;;;;;26.50;11.70;;;;;;;-1.79;82.70;102688.41;4975942;28;20052;-88
2021/12/21 01:53:37;;;;;;;26.40;11.97;;;;;;;-1.78;82.82;102690.16;4975854;28;20031;-88
2021/12/21 01:56:03;;;;;;;29.23;11.77;;;;;;;-1.79;82.71;102693.50;4959149;28;20050;-88
2021/12/21 01:58:29;;;;;;;29.20;12.50;;;;;;;-1.81;82.67;102692.53;4975056;28;20089;-88
2021/12/21 02:00:55;;;;;;;26.07;11.67;;;;;;;-1.82;82.78;102688.22;4977721;28;20530;-88
2021/12/21 02:03:20;;;;;;;25.47;12.07;;;;;;;-1.84;82.92;102684.72;4974987;28;20043;-88
2021/12/21 02:05:46;;;;;;;30.97;12.37;;;;;;;-1.84;83.05;102685.59;4975873;28;21993;-88
2021/12/21 02:08:12;;;;;;;27.07;12.23;;;;;;;-1.84;82.27;102684.72;4976219;28;20117;-88
2021/12/21 02:10:39;;;;;;;28.77;12.13;;;;;;;-1.86;83.09;102682.09;4974906;28;20049;-88
2021/12/21 02:13:04;;;;;;;29.57;11.90;;;;;;;-1.86;82.77;102676.09;4974771;28;20030;-88
2021/12/21 02:15:30;;;;;;;28.13;12.10;;;;;;;-1.89;83.14;102676.81;4978021;28;20130;-88
2021/12/21 02:20:47;;;;;;;28.97;11.67;;;;;;;-1.95;82.78;102670.50;4976455;28;20049;-88
2021/12/21 02:23:21;;;;;;;26.37;11.80;;;;;;;-1.96;82.89;102669.59;4977334;28;20054;-88
2021/12/21 02:26:06;;;;;;;23.97;11.33;;;;;;;-1.97;82.74;102672.97;4956826;28;20399;-88
2021/12/21 02:28:47;;;;;;;30.77;11.93;;;;;;;-1.96;83.19;102663.63;4974922;28;20046;-87
2021/12/21 02:31:16;;;;;;;28.77;11.40;;;;;;;-1.94;84.03;102659.50;4973860;28;20030;-87
2021/12/21 02:33:44;;;;;;;25.97;12.27;;;;;;;-1.96;83.64;102666.19;4974321;28;20101;-88
2021/12/21 02:36:10;;;;;;;25.57;11.60;;;;;;;-1.98;83.38;102669.53;4973932;28;20034;-87
2021/12/21 02:38:35;;;;;;;25.83;10.80;;;;;;;-1.98;83.05;102674.63;4974105;28;20043;-88
2021/12/21 02:41:00;;;;;;;22.80;11.30;;;;;;;-2.01;83.06;102666.81;4973980;28;20086;-87
2021/12/21 02:43:28;;;;;;;24.73;11.50;;;;;;;-2.00;83.16;102673.66;4956920;28;20023;-88
2021/12/21 02:45:53;;;;;;;30.27;12.27;;;;;;;-2.05;83.61;102669.97;4959156;28;20121;-88
2021/12/21 02:48:19;;;;;;;28.57;12.50;;;;;;;-2.03;83.41;102659.88;4982208;28;20109;-88
2021/12/21 02:50:44;;;;;;;20.60;10.90;;;;;;;-2.03;82.89;102663.28;4974318;28;20030;-87
2021/12/21 02:53:10;;;;;;;23.53;10.90;;;;;;;-2.06;82.78;102665.69;4976906;28;20026;-88
2021/12/21 02:55:36;;;;;;;23.17;10.67;;;;;;;-2.06;82.62;102660.59;4974083;28;20029;-88
2021/12/21 02:58:02;;;;;;;21.07;10.40;;;;;;;-2.05;81.90;102659.75;4974289;28;20053;-88
2021/12/21 03:00:29;;;;;;;20.27;9.50;;;;;;;-2.06;81.41;102658.03;4956192;28;20031;-88
2021/12/21 03:02:55;;;;;;;20.70;9.07;;;;;;;-2.08;81.56;102661.28;4957056;28;20395;-88
2021/12/21 03:05:21;;;;;;;20.80;9.63;;;;;;;-2.10;80.80;102656.09;4974709;28;20039;-88
2021/12/21 03:10:31;;;;;;;16.47;9.03;;;;;;;-2.18;79.22;102657.31;4982900;28;20057;-87
2021/12/21 03:15:40;;;;;;;22.13;10.20;;;;;;;-2.18;81.61;102657.31;4976676;28;20548;-88
2021/12/21 03:18:06;;;;;;;17.57;8.53;;;;;;;-2.15;80.77;102652.41;4973330;28;20102;-88
2021/12/21 03:20:32;;;;;;;23.30;10.53;;;;;;;-2.19;81.53;102653.03;4972924;28;20032;-88
2021/12/21 03:22:57;;;;;;;22.93;9.93;;;;;;;-2.17;81.36;102649.78;4973911;28;20026;-88
2021/12/21 03:25:22;;;;;;;25.90;11.60;;;;;;;-2.15;81.85;102655.84;4972586;28;20431;-88
2021/12/21 03:27:47;;;;;;;24.93;11.27;;;;;;;-2.17;81.71;102649.78;4973646;28;20050;-88
2021/12/21 03:30:15;;;;;;;22.63;11.53;;;;;;;-2.22;82.07;102648.63;4973722;28;20041;-88
2021/12/21 03:32:41;;;;;;;24.97;11.27;;;;;;;-2.22;81.22;102655.44;4973222;28;20038;-88
2021/12/21 03:35:08;;;;;;;20.90;11.00;;;;;;;-2.26;81.34;102643.28;4973794;28;20088;-88
2021/12/21 03:37:33;;;;;;;22.17;10.80;;;;;;;-2.32;81.82;102647.25;4973083;28;20026;-88
2021/12/21 03:40:01;;;;;;;19.30;8.70;;;;;;;-2.34;82.51;102646.28;4973705;28;20388;-88
2021/12/21 03:42:27;;;;;;;13.83;7.40;;;;;;;-2.34;81.98;102651.38;4974914;28;20077;-88
2021/12/21 03:44:52;;;;;;;17.17;8.07;;;;;;;-2.37;82.50;102646.09;4973015;28;20035;-88
2021/12/21 03:47:18;;;;;;;20.60;10.03;;;;;;;-2.37;83.25;102646.09;4972560;28;20046;-88
2021/12/21 03:52:23;;;;;;;28.10;12.67;;;;;;;-2.37;84.03;102651.19;4972264;28;20030;-88
2021/12/21 03:54:54;;;;;;;30.67;12.90;;;;;;;-2.36;84.92;102641.88;4972956;28;20081;-88
2021/12/21 03:57:19;;;;;;;28.40;12.87;;;;;;;-2.35;84.26;102638.56;4972853;28;20030;-88
2021/12/21 03:59:45;;;;;;;26.73;12.60;;;;;;;-2.34;83.80;102646.28;4971982;28;20532;-88
2021/12/21 04:02:12;;;;;;;28.00;13.27;;;;;;;-2.35;83.70;102643.66;4972154;28;20475;-88
2021/12/21 04:04:42;;;;;;;25.20;13.27;;;;;;;-2.41;83.95;102640.75;4972240;28;20034;-88
2021/12/21 04:07:09;;;;;;;28.33;12.80;;;;;;;-2.41;83.42;102644.19;4972664;28;20057;-88
2021/12/21 04:09:34;;;;;;;32.47;14.00;;;;;;;-2.46;83.64;102635.38;4976106;28;20425;-88
2021/12/21 04:12:03;;;;;;;29.43;14.20;;;;;;;-2.43;84.02;102635.56;4977442;28;20031;-87
2021/12/21 04:14:29;;;;;;;32.17;14.23;;;;;;;-2.39;84.25;102647.66;4975627;28;20038;-88
2021/12/21 04:16:54;;;;;;;32.13;14.07;;;;;;;-2.44;84.06;102639.78;4975702;28;20450;-88
2021/12/21 04:19:21;;;;;;;29.07;13.23;;;;;;;-2.40;84.29;102643.41;4958963;28;20125;-88
2021/12/21 04:21:47;;;;;;;33.67;14.13;;;;;;;-2.41;85.06;102639.09;4975409;28;20057;-88
2021/12/21 04:24:12;;;;;;;33.57;13.03;;;;;;;-2.39;85.00;102636.63;4975766;28;20095;-88
2021/12/21 04:26:37;;;;;;;30.10;13.90;;;;;;;-2.40;84.62;102637.41;4975712;28;20432;-88
2021/12/21 04:29:03;;;;;;;32.57;13.90;;;;;;;-2.39;84.62;102636.63;4985455;28;20424;-88
2021/12/21 04:31:28;;;;;;;30.33;13.17;;;;;;;-2.40;84.98;102633.19;4958829;28;20464;-88
2021/12/21 04:33:53;;;;;;;34.67;13.20;;;;;;;-2.42;84.58;102634.78;4975716;28;20066;-88
2021/12/21 04:36:19;;;;;;;26.70;12.77;;;;;;;-2.45;83.18;102635.47;4976696;28;20495;-88
2021/12/21 04:38:48;;;;;;;26.27;12.43;;;;;;;-2.45;82.98;102630.38;4976162;28;20447;-88
2021/12/21 04:41:23;;;;;;;35.30;13.60;;;;;;;-2.46;83.94;102630.28;4957892;28;20015;-87
2021/12/21 04:43:50;;;;;;;28.47;12.93;;;;;;;-2.45;83.59;102621.84;4976910;28;20026;-87
2021/12/21 04:46:15;;;;;;;26.90;12.33;;;;;;;-2.48;82.64;102627.66;4975076;28;20042;-88
2021/12/21 04:48:40;;;;;;;27.27;12.37;;;;;;;-2.47;82.66;102628.53;4975408;28;20030;-88
2021/12/21 04:51:06;;;;;;;28.50;12.20;;;;;;;-2.45;81.85;102632.03;4975858;28;20443;-88
2021/12/21 04:53:31;;;;;;;23.70;11.87;;;;;;;-2.45;82.46;102621.84;4957841;28;20034;-88
2021/12/21 04:55:57;;;;;;;25.53;11.50;;;;;;;-2.44;82.42;102623.63;4975916;28;20018;-88
2021/12/21 04:58:22;;;;;;;30.33;13.57;;;;;;;-2.45;83.00;102625.25;4975603;28;20063;-88
2021/12/21 05:00:49;;;;;;;32.50;12.40;;;;;;;-2.48;82.52;102626.78;4957512;28;20023;-88
2021/12/21 05:03:14;;;;;;;27.53;12.03;;;;;;;-2.57;82.67;102616.94;4975159;28;20018;-88
2021/12/21 05:05:40;;;;;;;29.60;13.13;;;;;;;-2.57;83.40;102618.63;4975492;28;20039;-88
2021/12/21 05:08:10;;;;;;;23.93;12.50;;;;;;;-2.57;83.30;102621.16;4975284;28;20025;-87
2021/12/21 05:10:50;;;;;;;28.37;13.33;;;;;;;-2.60;83.62;102616.75;4975004;28;20479;-88
2021/12/21 05:13:18;;;;;;;23.20;11.70;;;;;;;-2.62;83.08;102611.59;4974949;28;20034;-88
2021/12/21 05:15:44;;;;;;;28.03;12.40;;;;;;;-2.64;83.03;102618.25;4979627;28;20027;-88
2021/12/21 05:18:10;;;;;;;24.10;11.00;;;;;;;-2.66;81.61;102624.06;4974707;28;20027;-88
2021/12/21 05:20:36;;;;;;;22.90;10.63;;;;;;;-2.74;80.41;102623.63;4973837;28;20743;-88
2021/12/21 05:23:02;;;;;;;26.30;11.37;;;;;;;-2.76;80.42;102625.19;4975030;28;20032;-88
2021/12/21 05:25:28;;;;;;;25.03;11.03;;;;;;;-2.76;80.03;102623.50;4974638;28;20455;-87
2021/12/21 05:27:53;;;;;;;23.63;11.57;;;;;;;-2.75;80.87;102621.88;4974729;28;20105;-88
2021/12/21 05:30:18;;;;;;;26.00;11.43;;;;;;;-2.70;80.97;102629.75;4958132;28;20027;-87
2021/12/21 05:32:44;;;;;;;23.23;10.60;;;;;;;-2.70;81.46;102630.63;4974848;28;20029;-87
2021/12/21 05:35:10;;;;;;;22.03;11.50;;;;;;;-2.68;80.82;102630.75;4974888;28;20049;-88
2021/12/21 05:37:38;;;;;;;29.13;11.67;;;;;;;-2.67;80.88;102624.84;4974559;28;20556;-87
2021/12/21 05:42:56;;;;;;;22.30;10.03;;;;;;;-2.67;80.56;102628.25;4947143;28;20074;-87
2021/12/21 05:45:21;;;;;;;21.63;10.77;;;;;;;-2.67;80.40;102635.03;4977991;28;20066;-88
2021/12/21 05:47:47;;;;;;;26.53;12.30;;;;;;;-2.68;80.82;102628.19;4956565;28;20117;-88
2021/12/21 05:50:16;;;;;;;25.17;12.70;;;;;;;-2.70;81.29;102634.84;4977922;28;20034;-89
2021/12/21 05:52:42;;;;;;;22.37;11.93;;;;;;;-2.72;81.61;102636.44;4974778;28;20125;-87
2021/12/21 05:55:07;;;;;;;27.57;12.77;;;;;;;-2.78;82.07;102644.59;4976079;28;20437;-88
2021/12/21 05:57:33;;;;;;;29.27;12.47;;;;;;;-2.84;81.81;102641.69;4980179;28;20062;-88
2021/12/21 05:59:58;;;;;;;25.77;11.70;;;;;;;-2.84;81.33;102639.13;4974533;28;20394;-88
2021/12/21 06:02:24;;;;;;;23.67;11.70;;;;;;;-2.86;81.19;102638.16;4978145;28;20368;-88
2021/12/21 06:04:49;;;;;;;19.63;10.67;;;;;;;-2.86;80.15;102635.63;4977526;28;20476;-88
2021/12/21 06:07:15;;;;;;;22.47;10.03;;;;;;;-2.88;79.80;102635.53;4962588;28;20117;-88
2021/12/21 06:09:42;;;;;;;27.03;12.37;;;;;;;-2.89;81.05;102633.78;4976861;28;20053;-88
2021/12/21 06:12:16;;;;;;;29.83;13.27;;;;;;;-2.96;82.19;102630.00;4976775;28;20030;-88
2021/12/21 06:25:41;;;;;;;26.97;11.70;;;;;;;-3.03;80.57;102630.41;4975300;28;20046;-89
2021/12/21 06:28:11;;;;;;;19.17;10.17;;;;;;;-3.02;80.63;102633.84;4974943;28;20054;-88
2021/12/21 06:30:38;;;;;;;23.87;10.80;;;;;;;-2.99;80.97;102634.91;4973812;28;20027;-88
2021/12/21 06:33:04;;;;;;;22.27;12.20;;;;;;;-3.00;81.15;102633.16;4957141;28;20018;-88
2021/12/21 06:35:30;;;;;;;25.80;11.50;;;;;;;-2.98;81.88;102639.22;4974358;28;20042;-88
2021/12/21 06:37:55;;;;;;;23.93;12.83;;;;;;;-2.97;82.04;102629.88;4956300;28;20031;-88
2021/12/21 06:40:21;;;;;;;27.87;12.40;;;;;;;-3.02;82.60;102624.53;4975858;28;20133;-88
2021/12/21 06:42:49;;;;;;;27.03;12.50;;;;;;;-3.03;82.26;102625.31;4974412;28;20030;-88
2021/12/21 06:45:27;;;;;;;29.37;12.90;;;;;;;-3.04;82.39;102628.66;4956202;28;20041;-88
2021/12/21 06:53:21;;;;;;;26.00;12.27;;;;;;;-3.11;82.47;102631.66;4974871;28;20052;-88
2021/12/21 06:55:46;;;;;;;29.30;12.87;;;;;;;-3.15;82.54;102630.56;4973861;28;20034;-88
2021/12/21 06:58:11;;;;;;;23.90;11.97;;;;;;;-3.15;82.23;102634.78;4973899;28;20117;-88
2021/12/21 07:00:37;;;;;;;23.77;12.23;;;;;;;-3.15;81.84;102639.88;4976854;28;20505;-88
2021/12/21 07:03:03;;;;;;;24.93;11.93;;;;;;;-3.17;81.19;102631.25;4974381;28;20033;-88
2021/12/21 07:05:29;;;;;;;22.40;10.50;;;;;;;-3.19;80.75;102633.72;4982534;28;20023;-88
2021/12/21 07:07:55;;;;;;;26.20;11.03;;;;;;;-3.22;79.44;102636.09;4973913;28;20050;-88
2021/12/21 07:10:24;;;;;;;23.93;11.17;;;;;;;-3.29;79.54;102633.94;4973984;28;20030;-88
2021/12/21 07:20:26;;;;;;;23.90;12.17;;;;;;;-3.29;80.43;102632.31;4991421;28;20034;-88
2021/12/21 07:22:51;;;;;;;24.80;11.53;;;;;;;-3.26;80.62;102635.03;4974599;28;20057;-88
2021/12/21 07:25:16;;;;;;;21.97;11.40;;;;;;;-3.28;80.27;102639.16;4973088;28;20030;-88
2021/12/21 07:27:42;;;;;;;24.00;11.13;;;;;;;-3.27;79.57;102646.00;4973928;28;20034;-88
2021/12/21 07:30:08;;;;;;;25.60;12.33;;;;;;;-3.27;79.70;102640.91;4975784;28;20122;-88
2021/12/21 07:32:34;;;;;;;25.57;12.07;;;;;;;-3.26;80.29;102647.75;4957102;28;20031;-88
2021/12/21 07:34:59;;;;;;;22.00;10.87;;;;;;;-3.27;80.10;102651.09;4973783;28;20480;-88
2021/12/21 07:37:25;;;;;;;25.43;12.47;;;;;;;-3.27;79.79;102647.66;4972934;28;20113;-88
2021/12/21 07:39:51;;;;;;;25.87;12.33;;;;;;;-3.27;81.15;102643.47;4976885;28;20314;-90
2021/12/21 07:42:18;;;;;;;24.97;11.80;;;;;;;-3.28;80.53;102639.16;4983723;28;20030;-88
2021/12/21 07:44:43;;;;;;;25.97;13.00;;;;;;;-3.27;81.85;102645.09;4984271;28;20382;-87
2021/12/21 07:47:08;;;;;;;30.87;12.50;;;;;;;-3.26;81.48;102655.41;4984245;28;20408;-90
2021/12/21 07:49:34;;;;;;;23.30;12.27;;;;;;;-3.29;80.67;102661.94;4984948;28;20108;-90
2021/12/21 07:51:59;;;;;;;27.00;12.83;;;;;;;-3.27;81.53;102663.81;4984467;28;20070;-88
2021/12/21 07:54:25;;;;;;;26.73;13.10;;;;;;;-3.26;81.51;102662.13;4983693;28;20401;-90
2021/12/21 07:56:50;;;;;;;28.37;13.70;;;;;;;-3.29;81.49;102660.28;4981837;28;20046;-86
2021/12/21 07:59:16;;;;;;;29.80;14.27;;;;;;;-3.30;81.38;102661.09;4985037;28;20498;-92
2021/12/21 08:01:41;;;;;;;33.20;15.90;;;;;;;-3.31;81.47;102661.88;4984340;28;20041;-88
2021/12/21 08:04:07;;;;;;;29.27;14.57;;;;;;;-3.33;81.03;102658.34;4983203;28;20045;-88
2021/12/21 08:06:34;;;;;;;28.10;14.63;;;;;;;-3.31;81.21;102661.88;4984519;28;20034;-87
2021/12/21 08:09:02;;;;;;;27.77;14.40;;;;;;;-3.28;80.64;102659.50;4985350;28;20034;-88
2021/12/21 08:12:10;;;;;;;35.60;16.73;;;;;;;-3.26;80.79;102669.78;4963954;28;20035;-88
2021/12/21 08:14:13;;;;;;;32.53;15.83;;;;;;;-3.28;81.25;102669.69;4987223;28;20041;-88
2021/12/21 08:16:38;;;;;;;28.73;14.73;;;;;;;-3.24;81.58;102675.84;4986140;28;20030;-89
2021/12/21 08:19:03;;;;;;;27.33;13.37;;;;;;;-3.26;81.65;102678.31;4985579;28;20065;-87
2021/12/21 08:21:30;;;;;;;30.33;14.23;;;;;;;-3.22;81.40;102675.13;4984865;28;20034;-89
2021/12/21 08:23:55;;;;;;;27.37;13.57;;;;;;;-3.24;81.95;102669.06;4963939;28;20117;-88
2021/12/21 08:26:21;;;;;;;27.80;13.17;;;;;;;-3.21;81.84;102661.63;4978185;28;20493;-89
2021/12/21 08:28:46;;;;;;;29.17;13.87;;;;;;;-3.22;81.80;102659.88;4961825;28;20045;-87
2021/12/21 08:31:12;;;;;;;26.97;13.63;;;;;;;-3.17;82.49;102662.72;4981931;28;21441;-87
2021/12/21 08:33:38;;;;;;;24.47;12.80;;;;;;;-3.18;81.45;102670.25;4982252;28;20396;-86
2021/12/21 08:36:05;;;;;;;32.20;13.67;;;;;;;-3.16;81.38;102664.44;4981350;28;20045;-89
2021/12/21 08:38:32;;;;;;;26.63;13.30;;;;;;;-3.14;81.21;102662.00;4979100;28;20042;-86
2021/12/21 08:40:59;;;;;;;30.13;14.07;;;;;;;-3.09;82.13;102660.63;4981092;28;20455;-90
2021/12/21 08:43:25;;;;;;;31.20;14.67;;;;;;;-3.04;82.18;102669.41;4961419;28;20358;-89
2021/12/21 08:45:52;;;;;;;31.53;15.77;;;;;;;-3.02;83.18;102672.06;4961362;28;20113;-91
2021/12/21 08:48:18;;;;;;;31.73;14.53;;;;;;;-3.02;82.63;102665.28;4981001;28;20038;-90
2021/12/21 08:50:44;;;;;;;33.10;14.83;;;;;;;-2.99;82.33;102668.00;4982149;28;20026;-96
2021/12/21 08:53:12;;;;;;;26.53;13.93;;;;;;;-2.97;82.94;102669.00;4985995;28;20026;-89
2021/12/21 08:55:38;;;;;;;32.50;15.53;;;;;;;-2.93;83.53;102670.94;4983253;28;20141;-89
2021/12/21 08:58:03;;;;;;;29.67;14.97;;;;;;;-2.90;83.23;102673.63;4986736;28;20094;-91
2021/12/21 09:00:28;;;;;;;39.27;16.10;;;;;;;-2.87;82.94;102669.50;4985333;28;20042;-89
2021/12/21 09:02:54;;;;;;;33.10;15.97;;;;;;;-2.85;82.40;102673.94;4984701;28;20073;-89
2021/12/21 09:05:24;;;;;;;34.50;15.97;;;;;;;-2.83;82.53;102667.25;4985831;28;20030;-91
2021/12/21 09:07:50;;;;;;;35.57;16.10;;;;;;;-2.77;82.81;102679.47;4984821;28;20105;-92
2021/12/21 09:10:18;;;;;;;46.73;17.23;;;;;;;-2.75;83.11;102678.78;4986563;28;20037;-90
2021/12/21 09:12:44;;;;;;;40.13;16.80;;;;;;;-2.68;82.32;102685.09;4989250;28;20042;-90
2021/12/21 09:15:11;;;;;;;43.33;18.63;;;;;;;-2.63;83.94;102695.56;4986672;28;20084;-90
2021/12/21 09:17:37;;;;;;;37.57;18.40;;;;;;;-2.58;83.12;102680.56;4984668;28;20181;-90
2021/12/21 09:20:03;;;;;;;36.27;17.60;;;;;;;-2.53;83.97;102681.69;4986226;28;20198;-90
2021/12/21 09:22:29;;;;;;;38.00;18.30;;;;;;;-2.52;83.60;102676.69;4986855;28;20038;-92
2021/12/21 09:24:56;;;;;;;52.27;20.80;;;;;;;-2.47;83.92;102690.56;4987961;28;20176;-88
2021/12/21 09:27:21;;;;;;;45.53;21.20;;;;;;;-2.49;84.26;102686.19;4984916;28;20045;-89
2021/12/21 09:29:46;;;;;;;40.57;20.27;;;;;;;-2.43;83.78;102681.44;4986567;28;20110;-89
2021/12/21 09:32:13;;;;;;;39.40;20.43;;;;;;;-2.44;84.73;102680.53;4986249;28;20034;-90
2021/12/21 09:34:40;;;;;;;36.17;20.10;;;;;;;-2.39;84.08;102679.94;4964954;28;20062;-92
2021/12/21 09:37:06;;;;;;;46.50;20.90;;;;;;;-2.36;83.95;102678.44;4988063;28;20370;-91
2021/12/21 09:39:31;;;;;;;46.43;23.23;;;;;;;-2.34;84.32;102671.75;4988270;28;20088;-92
2021/12/21 09:41:57;;;;;;;50.43;23.40;;;;;;;-2.28;84.85;102681.41;4989630;28;20325;-90
2021/12/21 09:44:23;;;;;;;47.13;23.93;;;;;;;-2.24;84.61;102677.41;4985903;28;20041;-88
2021/12/21 09:46:48;;;;;;;45.17;23.67;;;;;;;-2.24;85.22;102679.94;4986937;28;20061;-88
2021/12/21 09:49:15;;;;;;;45.83;22.60;;;;;;;-2.17;84.36;102675.28;4986685;28;20030;-88
2021/12/21 09:51:41;;;;;;;42.57;20.30;;;;;;;-2.11;84.49;102672.19;4965818;28;20121;-89
2021/12/21 09:54:08;;;;;;;38.30;19.33;;;;;;;-2.07;84.61;102666.47;4988309;28;20101;-89
2021/12/21 09:56:34;;;;;;;42.53;19.53;;;;;;;-2.01;84.20;102666.81;4987613;28;20026;-89
2021/12/21 09:59:00;;;;;;;39.43;19.80;;;;;;;-1.98;84.12;102664.44;4986785;28;20093;-89
2021/12/21 10:01:25;;;;;;;31.73;18.23;;;;;;;-1.94;84.01;102662.91;4987503;28;20038;-89
2021/12/21 10:03:50;;;;;;;35.57;19.23;;;;;;;-1.91;84.74;102662.22;4987139;28;20088;-90
2021/12/21 10:06:16;;;;;;;34.83;18.00;;;;;;;-1.86;84.64;102665.88;4987457;28;20033;-90
2021/12/21 10:08:42;;;;;;;35.57;18.63;;;;;;;-1.84;84.21;102661.75;4987204;28;20708;-89
2021/12/21 10:11:21;;;;;;;35.73;19.23;;;;;;;-1.77;85.26;102661.31;4987001;28;20041;-90
2021/12/21 10:13:47;;;;;;;34.63;18.87;;;;;;;-1.75;84.31;102663.94;4987283;28;20036;-89
2021/12/21 10:16:17;;;;;;;33.77;17.83;;;;;;;-1.72;84.44;102677.75;4988354;28;20034;-92
2021/12/21 10:18:42;;;;;;;31.30;17.70;;;;;;;-1.69;83.78;102664.28;4987926;28;20034;-89
2021/12/21 10:21:10;;;;;;;36.53;18.87;;;;;;;-1.62;84.29;102655.28;4987643;28;20034;-88
2021/12/21 10:23:39;;;;;;;38.13;19.10;;;;;;;-1.59;83.31;102658.00;4987470;28;20041;-87
2021/12/21 10:26:07;;;;;;;33.90;18.97;;;;;;;-1.54;83.56;102649.78;4986540;28;20105;-88
2021/12/21 10:28:36;;;;;;;36.70;18.23;;;;;;;-1.50;83.78;102635.50;4985576;28;20041;-89
2021/12/21 10:31:06;;;;;;;34.20;18.20;;;;;;;-1.47;84.53;102625.47;4985942;28;20033;-90
2021/12/21 10:33:33;;;;;;;31.13;18.00;;;;;;;-1.45;83.95;102631.53;4986327;28;20367;-89
2021/12/21 10:36:01;;;;;;;33.47;18.03;;;;;;;-1.42;84.40;102635.91;4985279;28;20043;-89
2021/12/21 10:38:47;;;;;;;33.73;17.20;;;;;;;-1.40;84.09;102632.66;4985508;28;20503;-86
2021/12/21 10:41:19;;;;;;;29.80;16.60;;;;;;;-1.32;83.51;102634.72;4963210;28;20042;-87
2021/12/21 10:43:56;;;;;;;33.17;17.25;;;;;;;-1.28;83.47;102637.50;4985969;28;20057;-89
2021/12/21 10:46:22;;;;;;;33.63;17.43;;;;;;;-1.23;83.04;102640.31;4989248;28;20030;-87
2021/12/21 10:48:49;;;;;;;31.67;18.30;;;;;;;-1.19;83.71;102639.66;4987196;28;20049;-87
2021/12/21 10:51:15;;;;;;;27.80;17.27;;;;;;;-1.17;84.21;102647.41;4987967;28;20402;-88
2021/12/21 10:53:47;;;;;;;33.90;17.37;;;;;;;-1.15;83.25;102639.03;4987472;28;20136;-89
2021/12/21 10:56:13;;;;;;;35.87;17.07;;;;;;;-1.11;83.47;102643.50;4986527;28;20030;-88
2021/12/21 10:58:42;;;;;;;30.27;17.00;;;;;;;-1.05;83.54;102629.28;4963987;28;20387;-89
2021/12/21 11:01:13;;;;;;;27.03;16.03;;;;;;;-1.06;82.86;102625.84;4985745;28;20033;-88
2021/12/21 11:03:49;;;;;;;28.57;15.47;;;;;;;-0.99;83.19;102635.59;4986000;28;20459;-88
2021/12/21 11:06:25;;;;;;;32.23;16.70;;;;;;;-0.95;83.10;102626.41;4986161;28;20041;-87
2021/12/21 11:08:54;;;;;;;33.67;15.93;;;;;;;-0.90;83.22;102624.97;4986800;28;20022;-87
2021/12/21 11:11:29;;;;;;;26.43;14.43;;;;;;;-0.84;82.29;102619.28;4984842;28;20030;-88
2021/12/21 11:14:15;;;;;;;28.10;14.60;;;;;;;-0.77;82.46;102621.34;4964689;28;20443;-87
2021/12/21 11:16:42;;;;;;;26.80;15.33;;;;;;;-0.71;82.01;102620.78;4985556;28;20022;-89
2021/12/21 11:19:09;;;;;;;29.50;15.80;;;;;;;-0.65;81.65;102618.50;4983435;28;20026;-89
2021/12/21 11:21:35;;;;;;;28.47;16.27;;;;;;;-0.57;82.08;102619.78;4984856;28;20057;-88
2021/12/21 11:24:04;;;;;;;32.70;16.70;;;;;;;-0.56;81.94;102618.06;4982031;28;20041;-88
2021/12/21 11:26:31;;;;;;;27.33;15.77;;;;;;;-0.52;81.72;102612.31;4984100;28;20499;-91
2021/12/21 11:29:01;;;;;;;26.13;15.60;;;;;;;-0.39;80.97;102611.25;4985070;28;20022;-88
2021/12/21 11:31:27;;;;;;;26.33;15.40;;;;;;;-0.33;80.66;102608.97;4983890;28;20482;-90
2021/12/21 11:33:57;;;;;;;29.30;15.63;;;;;;;-0.26;80.43;102585.44;4982939;28;20045;-87
2021/12/21 11:39:08;;;;;;;25.57;15.20;;;;;;;-0.14;79.56;102574.03;4981035;28;20069;-87
2021/12/21 11:41:36;;;;;;;28.53;17.17;;;;;;;-0.10;79.66;102565.69;4983269;28;20478;-90
2021/12/21 11:44:24;;;;;;;29.07;16.97;;;;;;;-0.02;79.51;102569.50;4977468;28;20678;-92
2021/12/21 11:46:55;;;;;;;28.23;14.67;;;;;;;0.02;79.54;102565.38;4982049;28;20030;-90
2021/12/21 11:49:54;;;;;;;25.20;13.20;;;;;;;0.10;79.18;102570.06;4959338;28;20026;-87
2021/12/21 11:52:25;;;;;;;22.17;13.77;;;;;;;0.16;78.86;102568.59;4977418;28;20064;-89
2021/12/21 11:54:56;;;;;;;21.87;12.90;;;;;;;0.24;79.04;102567.22;4978757;28;20037;-88
2021/12/21 11:57:48;;;;;;;27.17;12.93;;;;;;;0.30;78.95;102567.50;4977564;28;20045;-88
2021/12/21 12:00:17;;;;;;;23.37;13.23;;;;;;;0.35;78.59;102570.28;4979602;28;20034;-89
2021/12/21 12:02:45;;;;;;;22.83;13.13;;;;;;;0.42;78.91;102578.28;4981338;28;20041;-89
2021/12/21 12:05:20;;;;;;;24.17;13.77;;;;;;;0.48;79.36;102571.69;4982097;28;20034;-88
2021/12/21 12:07:45;;;;;;;20.23;13.20;;;;;;;0.53;78.71;102565.06;4982431;28;20372;-96
2021/12/21 12:10:14;;;;;;;20.00;11.73;;;;;;;0.58;78.24;102569.63;4981855;28;20034;-89
2021/12/21 12:12:39;;;;;;;23.47;12.57;;;;;;;0.66;77.77;102563.94;4979427;28;20037;-91
2021/12/21 12:15:07;;;;;;;23.80;12.70;;;;;;;0.75;78.23;102548.97;4979796;28;20494;-89
2021/12/21 12:17:45;;;;;;;22.97;13.00;;;;;;;0.86;77.70;102549.41;4978351;28;20109;-89
2021/12/21 12:20:11;;;;;;;20.83;11.03;;;;;;;0.97;77.77;102547.28;4980868;28;20459;-90